Time;durP1;ratioP1;P1;durP2;ratioP2;P2;SDS_P1;SDS_P2;PMS_P1;PMS_P2;Temp;Humidity;BMP_temperature;BMP_pressure;BME280_temperature;BME280_humidity;BME280_pressure;Samples;Min_cycle;Max_cycle;Signal;HPM_P1;HPM_P2
2023/09/09 00:04:54;;;;;;;20.20;7.45;;;;;;;19.98;86.85;101157.17;4996624;56;1141020;-75
2023/09/09 00:10:00;;;;;;;12.45;6.78;;;;;;;19.95;86.64;101158.84;4996576;57;1140770;-76
2023/09/09 00:15:07;;;;;;;18.57;7.30;;;;;;;19.79;86.48;101163.66;4980124;56;1140932;-76
2023/09/09 00:20:15;;;;;;;12.90;7.10;;;;;;;19.62;86.59;101155.20;4944709;56;1141047;-75
2023/09/09 00:25:20;;;;;;;15.43;7.60;;;;;;;19.51;87.59;101155.01;4916553;57;1140816;-75
2023/09/09 00:30:26;;;;;;;20.20;7.17;;;;;;;19.54;87.78;101154.69;4915082;56;1140985;-75
2023/09/09 00:35:37;;;;;;;12.03;7.33;;;;;;;19.52;87.94;101149.14;5015360;57;1140796;-75
2023/09/09 00:40:48;;;;;;;20.25;7.97;;;;;;;19.56;88.72;101143.27;4937068;57;1141184;-75
2023/09/09 00:45:54;;;;;;;13.77;7.43;;;;;;;19.62;88.58;101141.79;4919867;57;1140848;-76
2023/09/09 00:51:00;;;;;;;11.43;7.70;;;;;;;19.59;88.26;101144.79;4934406;57;1140715;-75
2023/09/09 00:56:07;;;;;;;13.75;7.30;;;;;;;19.54;88.29;101143.96;4918145;58;1140640;-75
2023/09/09 01:01:12;;;;;;;12.47;7.25;;;;;;;19.52;88.27;101147.30;4995376;57;1140808;-75
2023/09/09 01:06:18;;;;;;;11.90;8.33;;;;;;;19.38;87.40;101144.36;4996587;57;1140813;-75
2023/09/09 01:11:24;;;;;;;11.90;7.25;;;;;;;19.18;87.89;101139.72;5015542;57;1140422;-75
2023/09/09 01:16:31;;;;;;;14.53;8.50;;;;;;;19.18;89.17;101145.92;4995802;57;1140796;-75
2023/09/09 01:21:39;;;;;;;9.98;7.58;;;;;;;19.26;89.38;101148.64;4827664;59;1252486;-75
2023/09/09 01:26:46;;;;;;;12.53;8.85;;;;;;;19.19;89.17;101147.61;5002951;57;1139027;-75
2023/09/09 01:31:52;;;;;;;11.85;8.28;;;;;;;19.06;88.80;101148.55;4991290;57;1141001;-75
2023/09/09 01:36:58;;;;;;;11.65;9.55;;;;;;;19.04;89.87;101143.00;4989044;57;1140965;-75
2023/09/09 01:42:04;;;;;;;12.50;9.25;;;;;;;19.06;90.25;101145.87;5023958;56;1140696;-75
2023/09/09 01:47:09;;;;;;;12.53;8.20;;;;;;;19.04;89.93;101144.34;4950475;56;1140413;-75
2023/09/09 01:52:15;;;;;;;16.62;8.05;;;;;;;19.00;89.90;101150.51;4915780;57;1140907;-75
2023/09/09 01:57:23;;;;;;;10.03;7.80;;;;;;;18.88;89.51;101143.23;4963309;57;1141081;-76
2023/09/09 02:02:28;;;;;;;18.92;9.33;;;;;;;18.88;89.85;101147.26;5096673;56;1140905;-75
2023/09/09 02:07:34;;;;;;;16.00;9.65;;;;;;;18.83;90.03;101142.86;5079130;56;1140979;-75
2023/09/09 02:12:39;;;;;;;9.73;8.63;;;;;;;18.77;90.45;101144.84;5059848;56;1140935;-75
2023/09/09 02:17:47;;;;;;;14.53;9.30;;;;;;;18.79;90.98;101140.14;5099770;56;1138850;-75
2023/09/09 02:22:52;;;;;;;14.83;9.23;;;;;;;18.78;90.46;101153.23;5079038;57;1140793;-75
2023/09/09 02:27:58;;;;;;;11.73;9.03;;;;;;;18.65;90.01;101151.92;5038646;56;1141038;-75
2023/09/09 02:33:04;;;;;;;15.83;9.33;;;;;;;18.52;90.35;101153.14;5090966;56;1140620;-75
2023/09/09 02:38:09;;;;;;;15.30;8.60;;;;;;;18.36;90.08;101155.68;4935819;57;1140700;-75
2023/09/09 02:43:15;;;;;;;13.93;9.40;;;;;;;18.20;90.66;101146.16;4891624;57;1141200;-75
2023/09/09 02:48:21;;;;;;;19.02;9.84;;;;;;;18.22;92.36;101139.66;4915836;58;1141039;-75
2023/09/09 02:53:26;;;;;;;13.76;9.72;;;;;;;18.13;91.59;101144.60;4854651;59;1141091;-75
2023/09/09 02:58:32;;;;;;;11.63;9.43;;;;;;;17.93;91.78;101145.23;4880366;57;1140953;-75
2023/09/09 03:03:40;;;;;;;24.02;9.28;;;;;;;17.85;92.90;101149.17;4919667;58;1140698;-77
2023/09/09 03:08:45;;;;;;;26.50;9.83;;;;;;;17.92;93.99;101146.72;4931930;57;1140995;-75
2023/09/09 03:13:51;;;;;;;16.07;9.23;;;;;;;17.87;93.83;101147.69;4938547;57;1140663;-75
2023/09/09 03:18:57;;;;;;;21.12;10.68;;;;;;;17.76;94.24;101150.05;4936732;57;1140703;-75
2023/09/09 03:24:02;;;;;;;17.40;9.43;;;;;;;17.71;94.69;101147.50;4935929;57;1142940;-75
2023/09/09 03:29:08;;;;;;;10.60;9.63;;;;;;;17.69;95.19;101138.78;5030322;57;1140815;-75
2023/09/09 03:34:14;;;;;;;12.98;9.68;;;;;;;17.68;95.77;101137.94;5050867;57;1140834;-75
2023/09/09 03:39:19;;;;;;;10.35;7.62;;;;;;;17.69;95.69;101142.30;5015460;57;1140875;-75
2023/09/09 03:44:25;;;;;;;13.00;9.00;;;;;;;17.71;95.28;101140.81;5038812;57;1141309;-75
2023/09/09 03:49:31;;;;;;;17.73;9.85;;;;;;;17.68;95.55;101141.95;5052645;57;1140913;-75
2023/09/09 03:54:36;;;;;;;20.77;11.20;;;;;;;17.68;96.47;101145.96;5052531;57;1140673;-75
2023/09/09 03:59:42;;;;;;;11.88;9.85;;;;;;;17.69;96.24;101148.98;5072502;57;1142965;-76
2023/09/09 04:04:48;;;;;;;15.43;9.98;;;;;;;17.66;95.69;101141.75;5017627;57;1140852;-75
2023/09/09 04:09:56;;;;;;;14.75;10.28;;;;;;;17.53;94.70;101144.75;5047062;57;1141144;-75
2023/09/09 04:15:02;;;;;;;27.52;10.15;;;;;;;17.40;95.63;101143.76;5054124;57;1143329;-75
2023/09/09 04:32:24;;;;;;;56.05;12.98;;;;;;;17.43;97.43;101141.25;5158338;56;46827;-74
2023/09/09 04:37:30;;;;;;;31.20;11.40;;;;;;;17.35;97.71;101143.84;4983316;57;1138788;-74
2023/09/09 04:42:35;;;;;;;20.80;9.70;;;;;;;17.28;97.68;101148.92;4992632;57;1142947;-74
2023/09/09 04:47:41;;;;;;;17.93;10.57;;;;;;;17.26;98.33;101151.42;4958921;57;1140959;-74
2023/09/09 04:52:47;;;;;;;28.87;10.90;;;;;;;17.29;99.20;101143.08;5022716;57;1143044;-74
2023/09/09 04:57:53;;;;;;;18.03;12.20;;;;;;;17.35;99.75;101143.34;5125236;56;1143241;-76
2023/09/09 05:02:59;;;;;;;23.27;12.83;;;;;;;17.41;100.00;101144.11;5033377;56;1142961;-74
2023/09/09 05:08:06;;;;;;;17.52;11.50;;;;;;;17.44;100.00;101148.29;5027005;57;1144991;-74
2023/09/09 05:13:12;;;;;;;21.20;12.27;;;;;;;17.46;100.00;101155.18;5037777;56;1154194;-74
2023/09/09 05:18:17;;;;;;;16.53;11.00;;;;;;;17.52;100.00;101151.92;5005260;57;1144882;-74
2023/09/09 05:23:23;;;;;;;17.63;11.73;;;;;;;17.59;100.00;101157.50;5017145;56;1145185;-74
2023/09/09 05:28:29;;;;;;;21.15;13.55;;;;;;;17.60;100.00;101156.52;5078141;56;1145387;-74
2023/09/09 05:33:34;;;;;;;19.27;15.23;;;;;;;17.68;100.00;101165.19;5018617;57;1145152;-74
2023/09/09 05:38:40;;;;;;;21.30;13.98;;;;;;;17.85;100.00;101164.38;4996057;57;1145096;-74
2023/09/09 05:43:46;;;;;;;18.73;14.40;;;;;;;18.05;100.00;101160.56;4995954;57;1145053;-74
2023/09/09 05:48:51;;;;;;;23.57;14.73;;;;;;;18.32;100.00;101158.34;5015348;57;1145264;-74
2023/09/09 05:53:57;;;;;;;20.30;13.93;;;;;;;18.52;100.00;101165.19;4996333;57;1145201;-74
2023/09/09 05:59:07;;;;;;;22.40;13.93;;;;;;;18.82;100.00;101177.85;4992285;57;1144900;-74
2023/09/09 06:04:10;;;;;;;23.22;12.15;;;;;;;19.12;100.00;101173.86;5016230;57;1145128;-75
2023/09/09 06:09:16;;;;;;;20.60;13.05;;;;;;;19.36;100.00;101168.66;4992335;57;1145169;-74
2023/09/09 06:14:23;;;;;;;25.37;14.03;;;;;;;19.60;100.00;101156.70;4996040;57;1145204;-74
2023/09/09 06:19:28;;;;;;;16.05;12.43;;;;;;;19.81;100.00;101164.34;5014973;56;1145157;-74
2023/09/09 06:24:34;;;;;;;16.23;11.68;;;;;;;20.02;100.00;101166.55;5078606;56;1145096;-75
2023/09/09 06:29:40;;;;;;;24.87;11.25;;;;;;;20.24;100.00;101164.59;5069110;56;1145158;-74
2023/09/09 06:34:46;;;;;;;17.73;11.63;;;;;;;20.46;100.00;101165.84;4952301;57;1145266;-74
2023/09/09 06:39:52;;;;;;;24.30;10.98;;;;;;;20.70;100.00;101161.79;4915767;57;1144726;-74
2023/09/09 06:44:58;;;;;;;13.05;11.63;;;;;;;20.94;100.00;101159.56;5074996;56;1144995;-74
2023/09/09 06:50:04;;;;;;;14.43;9.53;;;;;;;21.18;100.00;101169.95;5078578;56;1145170;-74
2023/09/09 06:55:10;;;;;;;16.67;9.38;;;;;;;21.45;100.00;101176.80;5106708;56;1142848;-75
2023/09/09 07:00:16;;;;;;;22.20;10.25;;;;;;;21.68;97.20;101179.07;5068131;56;1143011;-74
2023/09/09 07:05:22;;;;;;;12.20;8.83;;;;;;;21.91;97.52;101175.91;5078383;56;1143208;-74
2023/09/09 07:10:28;;;;;;;13.53;8.80;;;;;;;22.39;94.79;101189.62;5098945;57;1140762;-75
2023/09/09 07:15:36;;;;;;;19.73;8.03;;;;;;;22.39;94.79;101189.62;5078474;56;1140787;-75
2023/09/09 07:20:42;;;;;;;18.35;8.98;;;;;;;22.61;93.73;101185.22;5073545;56;1140953;-74
2023/09/09 07:25:47;;;;;;;14.64;8.70;;;;;;;22.83;91.18;101182.72;5099191;57;1140941;-74
2023/09/09 07:30:53;;;;;;;13.48;8.08;;;;;;;23.03;92.13;101188.77;5078202;56;1191293;-74
2023/09/09 07:35:58;;;;;;;13.98;8.08;;;;;;;23.19;88.34;101182.87;5015351;56;1140869;-74
2023/09/09 07:41:04;;;;;;;9.45;8.25;;;;;;;23.40;88.83;101185.14;5003689;56;1140978;-75
2023/09/09 07:46:11;;;;;;;16.42;8.52;;;;;;;23.68;89.68;101182.63;5026395;58;1138733;-76
2023/09/09 07:51:16;;;;;;;13.38;8.53;;;;;;;23.91;89.09;101187.08;4960893;57;1140884;-75
2023/09/09 07:56:22;;;;;;;11.30;8.48;;;;;;;24.14;86.73;101187.23;4996300;57;1141009;-75
2023/09/09 08:01:27;;;;;;;9.45;8.30;;;;;;;24.28;84.87;101190.14;5016355;57;1140757;-75
2023/09/09 08:06:33;;;;;;;16.55;8.30;;;;;;;24.45;83.25;101190.19;5079314;56;1138745;-75
2023/09/09 08:11:39;;;;;;;16.82;8.03;;;;;;;24.59;83.40;101186.60;4961214;57;1140926;-75
2023/09/09 08:16:44;;;;;;;11.03;7.60;;;;;;;24.76;80.97;101192.03;5098850;56;1141422;-75
2023/09/09 08:21:51;;;;;;;9.90;7.05;;;;;;;24.92;78.30;101197.67;4996737;57;1140639;-75
2023/09/09 08:26:57;;;;;;;18.62;6.75;;;;;;;25.12;81.24;101193.29;5078573;57;1138763;-74
2023/09/09 08:32:02;;;;;;;14.47;6.60;;;;;;;25.36;79.75;101191.97;4982690;58;1141211;-74
2023/09/09 08:37:08;;;;;;;8.70;6.17;;;;;;;25.47;75.93;101188.73;5025894;57;1140803;-76
2023/09/09 08:42:24;;;;;;;8.53;6.80;;;;;;;25.63;76.12;101188.11;5016160;57;1138961;-76
2023/09/09 08:47:34;;;;;;;15.40;7.47;;;;;;;25.78;74.94;101186.92;5020518;57;1138851;-76
2023/09/09 08:52:41;;;;;;;11.60;6.62;;;;;;;26.05;73.84;101181.59;5044913;57;1140601;-77
2023/09/09 08:57:48;;;;;;;10.58;6.42;;;;;;;26.21;71.14;101191.55;4944265;57;1141117;-75
2023/09/09 09:02:54;;;;;;;13.28;7.67;;;;;;;26.28;68.86;101191.05;5022306;56;1140760;-76
2023/09/09 09:08:01;;;;;;;12.23;6.63;;;;;;;26.35;69.50;101197.02;4983027;57;1140915;-75
2023/09/09 09:13:07;;;;;;;13.10;6.00;;;;;;;26.54;69.75;101186.73;5071082;56;1141045;-75
2023/09/09 09:18:13;;;;;;;7.90;5.83;;;;;;;26.71;67.21;101196.66;4944567;57;1140914;-76
2023/09/09 09:23:18;;;;;;;16.73;5.92;;;;;;;26.84;66.67;101185.80;4945435;57;1138815;-76
2023/09/09 09:28:30;;;;;;;13.08;6.20;;;;;;;26.98;65.29;101179.86;4913747;57;1140779;-76
2023/09/09 09:33:35;;;;;;;11.37;6.10;;;;;;;27.17;65.87;101181.73;4939757;57;1140772;-75
2023/09/09 09:38:41;;;;;;;9.98;6.15;;;;;;;27.26;63.78;101175.01;4999522;56;1141087;-76
2023/09/09 09:43:49;;;;;;;5.53;5.03;;;;;;;27.41;61.37;101179.67;5045620;56;1139060;-75
2023/09/09 09:48:55;;;;;;;7.97;5.83;;;;;;;27.53;60.98;101173.88;5007591;56;1138808;-75
2023/09/09 09:54:00;;;;;;;10.53;6.60;;;;;;;27.70;59.93;101168.83;5026625;56;1138753;-75
2023/09/09 09:59:08;;;;;;;10.32;6.20;;;;;;;27.75;57.16;101156.80;5045534;56;1140751;-75
2023/09/09 10:04:17;;;;;;;12.28;8.08;;;;;;;27.85;57.25;101159.03;5045886;56;1140906;-77
2023/09/09 10:09:30;;;;;;;7.20;4.90;;;;;;;27.92;59.14;101153.05;5018828;56;1141072;-71
2023/09/09 10:14:37;;;;;;;9.38;6.03;;;;;;;28.05;55.72;101157.05;5083870;56;1138791;-68
2023/09/09 10:19:44;;;;;;;11.08;5.25;;;;;;;28.17;56.57;101148.50;5011858;57;1138977;-69
2023/09/09 10:24:53;;;;;;;6.92;5.35;;;;;;;28.28;54.72;101145.09;5011410;57;1141022;-70
2023/09/09 10:30:00;;;;;;;18.85;5.85;;;;;;;28.33;55.56;101136.28;5016270;57;1138949;-69
2023/09/09 10:35:07;;;;;;;10.53;5.72;;;;;;;28.48;54.36;101141.41;5044807;56;1140789;-70
2023/09/09 10:40:15;;;;;;;8.28;5.45;;;;;;;28.56;53.21;101136.54;4951722;57;1140984;-74
2023/09/09 10:45:30;;;;;;;13.83;5.53;;;;;;;28.72;52.82;101140.59;4944342;57;1138695;-74
2023/09/09 10:50:44;;;;;;;10.20;5.53;;;;;;;28.82;52.84;101145.02;5044602;56;1140880;-74
2023/09/09 10:55:56;;;;;;;6.22;5.62;;;;;;;28.87;49.91;101140.27;5025530;56;1141063;-74
2023/09/09 11:01:03;;;;;;;12.15;5.97;;;;;;;28.92;49.80;101137.69;5021915;56;1138726;-74
2023/09/09 11:06:12;;;;;;;10.47;6.23;;;;;;;28.92;50.56;101143.13;4943425;55;1140968;-74
2023/09/09 11:11:38;;;;;;;8.93;5.05;;;;;;;28.90;50.16;101140.63;5010920;57;1141175;-74
2023/09/09 11:16:42;;;;;;;11.35;6.05;;;;;;;28.84;51.36;101129.82;5008450;57;1138698;-75
2023/09/09 11:21:50;;;;;;;11.60;5.53;;;;;;;28.99;52.27;101126.21;4996063;56;1140893;-76
2023/09/09 11:26:56;;;;;;;12.00;6.60;;;;;;;29.26;51.08;101118.58;5074680;56;1140926;-76
2023/09/09 11:32:02;;;;;;;6.78;5.15;;;;;;;29.31;50.62;101116.02;5016029;57;1140934;-75
2023/09/09 11:37:09;;;;;;;8.50;5.95;;;;;;;29.31;50.62;101116.02;5074961;56;1138914;-68
2023/09/09 11:42:15;;;;;;;9.33;5.72;;;;;;;29.51;50.61;101119.34;5077418;56;1141663;-77
2023/09/09 11:47:21;;;;;;;6.90;5.87;;;;;;;29.61;50.28;101106.55;5079491;56;1138808;-73
2023/09/09 11:52:28;;;;;;;12.10;5.05;;;;;;;29.63;49.25;101104.42;5074263;56;1138768;-72
2023/09/09 11:57:34;;;;;;;5.93;5.27;;;;;;;29.73;49.86;101103.33;5073321;56;1140962;-72
2023/09/09 12:02:39;;;;;;;6.12;5.47;;;;;;;29.86;46.97;101099.05;5061661;57;1138885;-73
2023/09/09 12:07:46;;;;;;;7.85;5.87;;;;;;;29.77;45.36;101099.09;4915294;57;1138697;-74
2023/09/09 12:12:52;;;;;;;10.60;6.37;;;;;;;29.84;46.88;101084.81;4988818;58;1138944;-76
2023/09/09 12:17:57;;;;;;;8.20;5.35;;;;;;;29.85;46.69;101089.20;4911756;58;1141003;-74
2023/09/09 12:23:03;;;;;;;7.50;5.22;;;;;;;29.99;46.15;101080.32;4982960;57;1138948;-74
2023/09/09 12:28:13;;;;;;;9.83;5.75;;;;;;;29.98;47.13;101084.11;4930391;58;1138725;-75
2023/09/09 12:33:19;;;;;;;10.20;6.00;;;;;;;30.01;47.01;101075.47;4992204;57;1138717;-75
2023/09/09 12:38:25;;;;;;;13.13;5.97;;;;;;;30.02;47.07;101079.86;5025970;57;1140705;-73
2023/09/09 12:43:31;;;;;;;13.10;6.40;;;;;;;30.00;47.51;101076.53;5021287;57;1140922;-74
2023/09/09 12:48:57;;;;;;;11.20;5.75;;;;;;;30.08;46.56;101072.95;4991477;57;1140978;-74
2023/09/09 12:54:03;;;;;;;13.10;6.97;;;;;;;30.15;47.00;101078.28;4991369;57;1141003;-74
2023/09/09 12:59:08;;;;;;;17.23;13.03;;;;;;;30.24;46.06;101067.34;5011189;57;1140745;-74
2023/09/09 13:04:14;;;;;;;6.97;5.70;;;;;;;30.38;45.67;101067.42;4992631;57;1143208;-74
2023/09/09 13:09:19;;;;;;;9.55;7.42;;;;;;;30.38;46.05;101057.03;4917032;56;1138804;-74
2023/09/09 13:14:25;;;;;;;10.75;7.80;;;;;;;30.47;44.69;101056.97;5029134;56;1138848;-73
2023/09/09 13:19:30;;;;;;;11.55;7.80;;;;;;;30.44;44.97;101050.08;5075062;56;1140780;-75
2023/09/09 13:24:36;;;;;;;27.27;13.13;;;;;;;30.51;45.09;101047.23;5014054;57;1140967;-73
2023/09/09 13:29:41;;;;;;;16.15;8.03;;;;;;;30.41;44.33;101045.08;5034893;57;1142760;-74
2023/09/09 13:34:47;;;;;;;18.32;10.00;;;;;;;30.48;47.06;101035.42;5074987;56;1140854;-74
2023/09/09 13:39:53;;;;;;;8.95;6.92;;;;;;;30.62;46.18;101041.50;5074683;56;1142821;-75
2023/09/09 13:44:58;;;;;;;12.23;7.12;;;;;;;30.68;45.11;101040.56;5075134;57;1138901;-73
2023/09/09 13:50:06;;;;;;;18.55;9.30;;;;;;;30.65;44.85;101036.94;5093718;56;1140665;-73
2023/09/09 13:55:12;;;;;;;11.43;9.08;;;;;;;30.64;44.18;101022.45;5042221;56;1140926;-73
2023/09/09 14:00:18;;;;;;;15.05;8.75;;;;;;;30.60;45.16;101032.18;5004414;56;1141007;-74
2023/09/09 14:05:24;;;;;;;15.10;9.73;;;;;;;30.61;43.84;101028.38;5011879;58;1141035;-73
2023/09/09 14:10:29;;;;;;;8.85;6.35;;;;;;;30.52;45.20;101021.60;4995974;57;1140837;-73
2023/09/09 14:15:35;;;;;;;10.78;9.05;;;;;;;30.52;45.61;101020.77;4992536;58;1138796;-74
2023/09/09 14:20:42;;;;;;;12.88;8.08;;;;;;;30.59;45.61;101011.94;5056105;57;1140980;-74
2023/09/09 14:25:48;;;;;;;8.40;5.37;;;;;;;30.55;44.55;101013.51;5002252;56;1140882;-75
2023/09/09 14:30:54;;;;;;;7.30;5.80;;;;;;;30.54;45.08;101018.14;5000845;57;1138717;-74
2023/09/09 14:35:59;;;;;;;14.23;9.53;;;;;;;30.55;45.11;101007.52;4993185;57;1139015;-74
2023/09/09 14:41:05;;;;;;;12.82;9.03;;;;;;;30.64;45.08;100997.88;5011257;57;1140839;-73
2023/09/09 14:46:13;;;;;;;10.20;5.53;;;;;;;30.62;44.87;101003.27;5001516;57;1140925;-73
2023/09/09 14:51:19;;;;;;;5.74;4.92;;;;;;;30.61;44.77;100996.16;5025016;57;1148201;-75
2023/09/09 14:56:24;;;;;;;9.84;5.16;;;;;;;30.57;44.58;101003.15;5038864;56;1139018;-74
2023/09/09 15:01:30;;;;;;;9.20;5.70;;;;;;;30.57;44.23;101001.79;5020336;57;1138665;-74
2023/09/09 15:06:36;;;;;;;7.43;5.50;;;;;;;30.44;43.94;100994.12;5030385;57;1138846;-75
2023/09/09 15:11:41;;;;;;;8.78;5.17;;;;;;;30.34;44.97;100993.06;4996684;57;1138581;-74
2023/09/09 15:16:52;;;;;;;13.00;5.70;;;;;;;30.45;45.34;100989.48;5004215;57;1138864;-73
2023/09/09 15:22:00;;;;;;;8.18;6.22;;;;;;;30.48;44.34;100984.09;4999710;56;1140957;-74
2023/09/09 15:27:05;;;;;;;7.63;6.57;;;;;;;30.38;44.63;100983.34;5057730;56;1138857;-73
2023/09/09 15:32:11;;;;;;;7.03;6.20;;;;;;;30.28;43.64;100988.54;5110574;56;1138556;-74
2023/09/09 15:37:17;;;;;;;10.35;6.12;;;;;;;30.15;44.89;100978.70;5047913;56;1139001;-75
2023/09/09 15:42:22;;;;;;;18.73;6.80;;;;;;;30.10;44.15;100977.77;5058230;56;1140926;-75
2023/09/09 15:47:28;;;;;;;12.73;10.03;;;;;;;30.03;45.15;100979.23;5100574;56;1140922;-74
2023/09/09 15:52:33;;;;;;;17.65;15.63;;;;;;;30.05;44.98;100979.83;5024628;57;1143306;-73
2023/09/09 15:57:39;;;;;;;23.32;16.35;;;;;;;30.02;45.15;100978.40;5025814;56;1142937;-74
2023/09/09 16:02:44;;;;;;;10.38;7.03;;;;;;;30.03;45.93;100981.42;5044870;56;1142911;-74
2023/09/09 16:07:50;;;;;;;13.30;5.75;;;;;;;30.04;46.23;100979.00;5025902;56;1140822;-74
2023/09/09 16:13:01;;;;;;;8.38;6.10;;;;;;;30.04;46.26;100979.53;5056918;55;1141034;-74
2023/09/09 16:18:06;;;;;;;115.63;69.83;;;;;;;30.00;46.27;100985.98;5110633;56;1138834;-74
2023/09/09 16:23:12;;;;;;;19.60;17.10;;;;;;;29.93;46.88;100983.05;5129137;56;1144929;-74
2023/09/09 16:28:18;;;;;;;17.27;6.37;;;;;;;29.89;47.16;100981.31;4964298;56;1142757;-74
2023/09/09 16:33:24;;;;;;;7.67;6.10;;;;;;;29.77;47.45;100975.02;5092205;56;1140899;-75
2023/09/09 16:38:29;;;;;;;16.67;6.97;;;;;;;29.55;47.52;100972.52;5128286;56;1138742;-74
2023/09/09 16:43:37;;;;;;;41.98;12.35;;;;;;;29.41;49.53;100980.06;5108892;56;1141053;-74
2023/09/09 16:48:43;;;;;;;51.10;13.80;;;;;;;29.28;51.73;100978.86;5055086;56;1143009;-75
2023/09/09 16:53:49;;;;;;;56.45;14.98;;;;;;;29.01;52.92;100975.14;5084431;56;1143591;-74
2023/09/09 16:58:55;;;;;;;50.90;13.28;;;;;;;28.86;54.73;100976.59;5108889;56;1142947;-74
2023/09/09 17:04:00;;;;;;;33.10;13.40;;;;;;;28.68;56.63;100974.67;5109317;56;1143026;-74
2023/09/09 17:09:06;;;;;;;40.43;13.90;;;;;;;28.56;57.93;100973.77;5123393;55;1143159;-74
2023/09/09 17:14:11;;;;;;;32.88;12.50;;;;;;;28.45;58.95;100979.93;5129001;56;1143167;-74
2023/09/09 17:19:17;;;;;;;52.25;15.58;;;;;;;28.30;60.12;100978.93;5108631;56;1143056;-74
2023/09/09 17:24:23;;;;;;;60.60;26.80;;;;;;;28.10;61.25;100981.83;5056688;56;1143035;-74
2023/09/09 17:29:29;;;;;;;60.90;32.73;;;;;;;27.99;62.23;100986.08;5077319;56;1143012;-74
2023/09/09 17:34:42;;;;;;;47.08;20.97;;;;;;;27.85;63.13;100990.48;5104508;56;1142850;-74
2023/09/09 17:39:47;;;;;;;37.33;14.05;;;;;;;27.68;63.60;100996.14;5081240;56;1142708;-74
2023/09/09 17:44:53;;;;;;;37.03;12.13;;;;;;;27.49;64.47;100997.41;5010099;56;1142892;-74
2023/09/09 17:49:59;;;;;;;27.90;10.58;;;;;;;27.36;65.06;101004.25;4957869;57;1143048;-74
2023/09/09 17:55:05;;;;;;;34.07;9.90;;;;;;;27.22;65.83;101003.48;5016636;56;1143135;-73
2023/09/09 18:00:11;;;;;;;33.73;11.88;;;;;;;27.05;66.65;100999.59;5015229;57;1141029;-74
2023/09/09 18:05:17;;;;;;;23.15;11.38;;;;;;;26.88;67.55;101003.30;4916004;57;1142870;-74
2023/09/09 18:10:23;;;;;;;36.80;10.68;;;;;;;26.69;68.50;101006.06;4939210;57;1142708;-74
2023/09/09 18:15:29;;;;;;;29.95;10.48;;;;;;;26.50;69.28;100996.92;5116907;55;1142596;-74
2023/09/09 18:20:34;;;;;;;29.75;8.30;;;;;;;26.35;69.74;101009.87;5025526;57;1142934;-75
2023/09/09 18:25:40;;;;;;;25.92;8.70;;;;;;;26.11;70.54;101010.81;4927588;57;1140687;-74
2023/09/09 18:30:46;;;;;;;30.70;9.55;;;;;;;25.95;71.30;101002.25;4995660;57;1140902;-74
2023/09/09 18:35:52;;;;;;;13.70;8.05;;;;;;;25.78;72.00;101004.53;4984976;57;1140696;-74
2023/09/09 18:40:57;;;;;;;14.43;7.50;;;;;;;25.65;72.74;101008.06;4991240;57;1140835;-74
2023/09/09 18:46:04;;;;;;;23.10;7.85;;;;;;;25.53;73.64;101007.77;4991680;57;1140832;-76
2023/09/09 18:51:09;;;;;;;10.88;8.65;;;;;;;25.42;74.34;101011.61;4971377;57;1140910;-74
2023/09/09 18:56:15;;;;;;;13.18;7.85;;;;;;;25.33;74.67;101016.38;4998918;56;1140778;-74
2023/09/09 19:01:22;;;;;;;15.83;8.40;;;;;;;25.18;74.45;101013.83;5117925;56;1141196;-74
2023/09/09 19:06:28;;;;;;;11.60;7.62;;;;;;;24.99;75.20;101006.45;5085788;55;1141267;-74
2023/09/09 19:11:33;;;;;;;9.58;7.83;;;;;;;24.79;75.85;101014.43;5099180;56;1140961;-73
2023/09/09 19:16:39;;;;;;;8.83;7.35;;;;;;;24.72;76.64;101017.63;5054324;56;1138870;-73
2023/09/09 19:21:45;;;;;;;12.75;7.97;;;;;;;24.69;76.86;101019.89;5060290;57;1138637;-74
2023/09/09 19:26:50;;;;;;;11.83;8.68;;;;;;;24.62;76.77;101015.78;5039869;57;1140900;-73
2023/09/09 19:31:56;;;;;;;12.88;9.40;;;;;;;24.43;76.79;101026.81;5056893;56;1140700;-74
2023/09/09 19:37:01;;;;;;;16.56;8.66;;;;;;;24.28;77.24;101025.23;4995941;57;1140695;-74
2023/09/09 19:42:07;;;;;;;11.03;8.75;;;;;;;24.12;77.48;101027.67;5040058;57;1141153;-74
2023/09/09 19:47:13;;;;;;;9.28;8.25;;;;;;;23.93;78.07;101023.75;5020728;57;1140496;-74
2023/09/09 19:52:19;;;;;;;9.30;8.00;;;;;;;23.93;78.78;101032.38;5021673;57;1138614;-75
2023/09/09 19:57:25;;;;;;;11.85;8.50;;;;;;;23.89;79.01;101025.16;5041082;57;1138733;-74
2023/09/09 20:02:30;;;;;;;17.57;8.38;;;;;;;23.87;79.17;101019.11;4993629;57;1141318;-73
2023/09/09 20:07:36;;;;;;;17.90;8.78;;;;;;;23.77;79.17;101019.96;4988043;57;1140709;-73
2023/09/09 20:12:42;;;;;;;19.83;8.87;;;;;;;23.68;80.05;101023.28;5024419;56;1140955;-74
2023/09/09 20:17:47;;;;;;;15.15;8.73;;;;;;;23.61;79.72;101026.96;5013332;57;1140856;-74
2023/09/09 20:22:53;;;;;;;12.30;8.35;;;;;;;23.55;80.01;101024.50;4943896;57;1140928;-74
2023/09/09 20:27:58;;;;;;;18.57;9.50;;;;;;;23.39;79.57;101032.28;4968939;56;1146494;-73
2023/09/09 20:33:04;;;;;;;33.05;10.15;;;;;;;23.33;80.29;101022.78;4880420;57;1140812;-73
2023/09/09 20:38:10;;;;;;;18.60;9.05;;;;;;;23.16;80.06;101024.86;4915265;57;1142856;-73
2023/09/09 20:43:17;;;;;;;14.60;8.50;;;;;;;22.99;80.52;101019.34;4991510;57;1140930;-73
2023/09/09 20:48:23;;;;;;;14.55;8.73;;;;;;;22.84;80.97;101016.66;5053407;56;1140661;-73
2023/09/09 20:53:38;;;;;;;11.22;8.95;;;;;;;22.77;81.44;101013.86;5104858;56;1140676;-73
2023/09/09 20:58:41;;;;;;;9.28;8.23;;;;;;;22.78;81.85;101012.00;5102949;56;1140674;-73
2023/09/09 21:03:46;;;;;;;18.57;8.38;;;;;;;22.71;81.04;101008.36;5123683;56;1249819;-73
2023/09/09 21:08:52;;;;;;;19.35;9.40;;;;;;;22.43;80.87;101012.20;4961987;56;1140917;-74
2023/09/09 21:13:57;;;;;;;16.85;9.28;;;;;;;22.19;81.99;101013.77;4992080;56;1140915;-73
2023/09/09 21:19:03;;;;;;;15.30;9.10;;;;;;;22.12;83.07;101025.80;4916123;57;1140988;-74
2023/09/09 21:24:08;;;;;;;12.20;8.88;;;;;;;;;;4968814;57;1141191;-73
2023/09/09 21:29:13;;;;;;;12.15;7.97;;;;;;;21.88;83.18;101025.44;5127370;57;819607;-73
2023/09/09 21:34:19;;;;;;;12.68;8.98;;;;;;;21.76;83.49;101018.80;4995863;57;1138737;-75
2023/09/09 21:39:27;;;;;;;14.38;8.95;;;;;;;21.74;84.16;101014.94;5091785;56;1141002;-74
2023/09/09 21:44:33;;;;;;;12.60;9.15;;;;;;;21.82;84.42;101010.02;5075051;57;1140926;-75
2023/09/09 21:49:39;;;;;;;13.10;8.73;;;;;;;21.81;84.33;101008.85;4996269;57;1141077;-74
2023/09/09 21:54:45;;;;;;;12.05;9.05;;;;;;;21.66;83.23;101012.83;4964923;57;1140944;-73
2023/09/09 21:59:50;;;;;;;17.12;9.75;;;;;;;21.62;84.42;101006.13;4996651;58;1140600;-74
2023/09/09 22:04:56;;;;;;;11.88;9.28;;;;;;;21.55;84.60;101003.30;4990187;57;1140911;-74
2023/09/09 22:10:02;;;;;;;18.57;10.00;;;;;;;21.56;84.32;100994.71;4912282;58;1141191;-75
2023/09/09 22:15:10;;;;;;;13.60;9.68;;;;;;;21.42;84.12;101000.36;4979897;57;1142950;-74
2023/09/09 22:20:17;;;;;;;14.85;8.93;;;;;;;21.28;84.11;100999.27;4916257;57;1140983;-74
2023/09/09 22:25:23;;;;;;;13.38;8.78;;;;;;;21.25;84.63;101001.46;4924019;58;1140936;-74
2023/09/09 22:30:29;;;;;;;16.27;8.98;;;;;;;21.33;85.18;100987.47;4910880;58;1140714;-74
2023/09/09 22:35:34;;;;;;;11.08;9.95;;;;;;;21.38;84.99;100988.30;4986458;57;1140974;-74
2023/09/09 22:40:41;;;;;;;13.58;9.48;;;;;;;21.39;84.87;100981.36;4992408;57;1140777;-73
2023/09/09 22:45:48;;;;;;;13.65;9.48;;;;;;;21.38;84.70;100977.53;4936801;58;1140814;-74
2023/09/09 22:50:53;;;;;;;22.65;10.60;;;;;;;21.25;83.42;100983.47;4992641;57;1140651;-73
2023/09/09 22:56:00;;;;;;;13.10;10.50;;;;;;;21.06;84.53;100982.55;4992312;57;1143187;-74
2023/09/09 23:01:07;;;;;;;21.20;10.58;;;;;;;20.93;84.25;100984.44;4972748;57;1143169;-75
2023/09/09 23:06:12;;;;;;;18.98;11.93;;;;;;;20.74;84.07;100984.88;4999902;57;1142954;-73
2023/09/09 23:11:18;;;;;;;33.00;13.68;;;;;;;20.66;84.61;100984.38;5074268;56;1142874;-74